Terminal Aerodrome Forecast
Issued by NWS

Current Version | Previous Version | Graphics & Text | Print | Product List | Glossary On
Versions: 1 2 3 4 5 6 7 8 9 10 11 12 13 14 15 16 17 18 19 20 21 22 23 24
000
FTUS41 KPBZ 210500
TAFMGW
TAF
KMGW 210522Z 2106/2206 20005KT 6SM -SHRA BR OVC035
     FM210800 22003KT P6SM BKN015
     FM211600 25005KT P6SM -SHRA OVC015
     FM212300 29005KT P6SM VCSH BKN020=

USA.gov is the U.S. government's official web portal to all federal, state and local government web resources and services.